createdAt,value
2023-02-12T00:00:56.605Z,18.87
2023-02-12T00:03:24.260Z,18.77
2023-02-12T00:05:51.872Z,17.57
2023-02-12T00:08:20.839Z,19.17
2023-02-12T00:10:48.767Z,20.27
2023-02-12T00:13:16.447Z,19.93
2023-02-12T00:15:44.586Z,20.50
2023-02-12T00:18:12.293Z,19.17
2023-02-12T00:20:40.509Z,19.27
2023-02-12T00:23:08.276Z,18.37
2023-02-12T00:25:42.641Z,20.67
2023-02-12T00:28:10.533Z,20.63
2023-02-12T00:30:38.720Z,20.20
2023-02-12T00:33:06.733Z,21.33
2023-02-12T00:35:34.748Z,20.00
2023-02-12T00:38:02.580Z,19.10
2023-02-12T00:40:31.137Z,19.90
2023-02-12T00:43:00.242Z,18.93
2023-02-12T00:45:28.418Z,20.17
2023-02-12T00:47:56.026Z,20.07
2023-02-12T00:50:24.123Z,21.00
2023-02-12T00:52:51.764Z,22.50
2023-02-12T00:55:20.444Z,22.40
2023-02-12T00:57:48.331Z,19.93
2023-02-12T01:00:19.074Z,21.67
2023-02-12T01:02:47.157Z,19.53
2023-02-12T01:05:15.366Z,21.07
2023-02-12T01:07:43.073Z,20.23
2023-02-12T01:10:11.571Z,22.73
2023-02-12T01:12:39.191Z,20.57
2023-02-12T01:15:07.936Z,22.80
2023-02-12T01:17:36.999Z,22.53
2023-02-12T01:20:07.194Z,21.83
2023-02-12T01:22:35.194Z,21.90
2023-02-12T01:25:03.733Z,21.73
2023-02-12T01:27:33.037Z,21.03
2023-02-12T01:30:01.045Z,20.67
2023-02-12T01:32:28.829Z,21.30
2023-02-12T01:34:58.188Z,21.67
2023-02-12T01:37:25.804Z,20.70
2023-02-12T01:39:54.250Z,21.17
2023-02-12T01:42:22.354Z,22.80
2023-02-12T01:45:41.502Z,22.50
2023-02-12T01:48:09.478Z,22.87
2023-02-12T01:50:40.017Z,23.93
2023-02-12T01:53:07.725Z,21.00
2023-02-12T01:55:35.409Z,19.93
2023-02-12T01:58:05.138Z,20.87
2023-02-12T02:00:33.482Z,20.50
2023-02-12T02:03:02.912Z,19.90
2023-02-12T02:05:42.041Z,20.13
2023-02-12T02:08:11.902Z,18.97
2023-02-12T02:10:40.516Z,18.87
2023-02-12T02:13:26.156Z,19.97
2023-02-12T02:15:59.419Z,19.70
2023-02-12T02:18:34.859Z,19.50
2023-02-12T02:21:36.889Z,19.63
2023-02-12T02:24:23.198Z,19.17
2023-02-12T02:27:17.400Z,19.60
2023-02-12T02:30:29.839Z,20.07
2023-02-12T02:33:07.695Z,20.83
2023-02-12T02:35:41.615Z,20.20
2023-02-12T02:38:21.071Z,19.50
2023-02-12T02:40:55.023Z,19.90
2023-02-12T02:43:27.035Z,20.20
2023-02-12T02:46:00.606Z,21.00
2023-02-12T02:48:33.240Z,20.70
2023-02-12T02:51:05.669Z,20.30
2023-02-12T02:53:38.719Z,21.50
2023-02-12T02:56:10.195Z,21.30
2023-02-12T02:58:42.630Z,21.00
2023-02-12T03:01:18.316Z,21.80
2023-02-12T03:03:50.498Z,20.40
2023-02-12T03:06:25.686Z,22.97
2023-02-12T03:08:57.899Z,22.10
2023-02-12T03:11:27.862Z,21.20
2023-02-12T03:14:00.632Z,21.70
2023-02-12T03:16:35.011Z,22.03
2023-02-12T03:19:08.178Z,21.53
2023-02-12T03:21:42.185Z,21.20
2023-02-12T03:24:16.167Z,20.90
2023-02-12T03:26:48.319Z,21.07
2023-02-12T03:29:16.232Z,20.97
2023-02-12T03:31:57.304Z,22.67
2023-02-12T03:34:32.013Z,21.87
2023-02-12T03:37:04.608Z,21.70
2023-02-12T03:39:44.321Z,21.07
2023-02-12T03:42:15.744Z,20.20
2023-02-12T03:44:53.787Z,19.60
2023-02-12T03:47:28.254Z,20.37
2023-02-12T03:50:03.618Z,20.70
2023-02-12T03:52:32.029Z,19.73
2023-02-12T03:55:01.464Z,21.20
2023-02-12T03:57:35.103Z,21.70
2023-02-12T04:00:06.952Z,20.67
2023-02-12T04:02:45.089Z,19.03
2023-02-12T04:05:18.820Z,21.17
2023-02-12T04:07:47.393Z,21.00
2023-02-12T04:10:16.123Z,21.73
2023-02-12T04:12:53.263Z,19.87
2023-02-12T04:15:38.630Z,21.90
2023-02-12T04:18:13.427Z,22.03
2023-02-12T04:20:51.748Z,20.10
2023-02-12T04:23:37.500Z,20.90
2023-02-12T04:26:13.398Z,22.07
2023-02-12T04:28:47.420Z,23.20
2023-02-12T04:31:24.363Z,20.93
2023-02-12T04:34:04.334Z,22.10
2023-02-12T04:36:36.465Z,19.87
2023-02-12T04:39:08.735Z,21.10
2023-02-12T04:41:36.679Z,20.87
2023-02-12T04:44:19.021Z,20.97
2023-02-12T04:46:46.653Z,20.83
2023-02-12T04:49:18.502Z,22.33
2023-02-12T04:51:46.538Z,21.30
2023-02-12T04:54:14.949Z,22.27
2023-02-12T04:56:42.666Z,20.57
2023-02-12T04:59:10.805Z,21.50
2023-02-12T05:01:39.845Z,19.83
2023-02-12T05:04:09.407Z,21.73
2023-02-12T05:06:40.416Z,20.40
2023-02-12T05:09:09.638Z,20.80
2023-02-12T05:11:37.342Z,21.00
2023-02-12T05:14:04.949Z,20.33
2023-02-12T05:16:33.412Z,21.90
2023-02-12T05:19:01.469Z,21.40
2023-02-12T05:21:29.608Z,20.27
2023-02-12T05:23:58.607Z,20.53
2023-02-12T05:26:26.807Z,21.77
2023-02-12T05:28:54.497Z,20.10
2023-02-12T05:31:22.345Z,20.67
2023-02-12T05:33:50.676Z,19.40
2023-02-12T05:36:20.529Z,19.50
2023-02-12T05:38:49.243Z,21.20
2023-02-12T05:41:21.154Z,19.97
2023-02-12T05:43:50.004Z,20.00
2023-02-12T05:46:18.864Z,19.13
2023-02-12T05:48:47.392Z,20.33
2023-02-12T05:51:16.848Z,19.43
2023-02-12T05:53:44.615Z,22.10
2023-02-12T05:56:15.121Z,20.27
2023-02-12T05:58:46.776Z,20.57
2023-02-12T06:01:16.521Z,19.20
2023-02-12T06:03:44.530Z,20.00
2023-02-12T06:06:13.203Z,18.53
2023-02-12T06:08:41.763Z,21.57
2023-02-12T06:11:12.125Z,20.53
2023-02-12T06:13:40.185Z,21.30
2023-02-12T06:16:18.862Z,20.47
2023-02-12T06:18:46.666Z,19.40
2023-02-12T06:21:16.096Z,19.97
2023-02-12T06:23:44.090Z,18.20
2023-02-12T06:26:12.026Z,19.90
2023-02-12T06:28:40.260Z,18.03
2023-02-12T06:31:19.537Z,20.23
2023-02-12T06:33:47.429Z,19.00
2023-02-12T06:36:15.099Z,18.70
2023-02-12T06:38:43.360Z,16.50
2023-02-12T06:41:11.250Z,18.90
2023-02-12T06:43:39.282Z,19.53
2023-02-12T06:46:07.808Z,20.50
2023-02-12T06:48:37.387Z,20.10
2023-02-12T06:51:06.532Z,19.17
2023-02-12T06:53:35.460Z,20.10
2023-02-12T06:56:03.911Z,19.10
2023-02-12T06:58:31.748Z,18.87
2023-02-12T07:01:10.668Z,17.33
2023-02-12T07:03:40.323Z,18.33
2023-02-12T07:06:08.187Z,19.40
2023-02-12T07:08:36.462Z,17.70
2023-02-12T07:11:04.204Z,18.40
2023-02-12T07:13:34.646Z,18.93
2023-02-12T07:16:05.957Z,18.47
2023-02-12T07:18:34.951Z,20.10
2023-02-12T07:21:05.227Z,19.27
2023-02-12T07:23:33.317Z,19.00
2023-02-12T07:26:02.355Z,18.17
2023-02-12T07:28:33.877Z,21.23
2023-02-12T07:31:06.884Z,21.07
2023-02-12T07:33:34.959Z,21.50
2023-02-12T07:36:05.139Z,19.70
2023-02-12T07:38:33.885Z,20.63
2023-02-12T07:41:10.541Z,19.80
2023-02-12T07:43:38.484Z,20.83
2023-02-12T07:46:11.918Z,19.10
2023-02-12T07:48:40.149Z,20.30
2023-02-12T07:51:11.453Z,19.77
2023-02-12T07:53:39.710Z,20.70
2023-02-12T07:56:09.491Z,20.80
2023-02-12T07:58:37.776Z,17.60
2023-02-12T08:01:18.754Z,20.87
2023-02-12T08:03:47.719Z,19.43
2023-02-12T08:06:19.481Z,22.00
2023-02-12T08:08:47.132Z,20.40
2023-02-12T08:11:16.579Z,20.53
2023-02-12T08:13:44.797Z,20.07
2023-02-12T08:16:15.608Z,21.00
2023-02-12T08:18:44.410Z,24.17
2023-02-12T08:21:13.696Z,21.67
2023-02-12T08:23:43.195Z,22.37
2023-02-12T08:26:12.702Z,23.00
2023-02-12T08:28:43.867Z,21.30
2023-02-12T08:31:14.354Z,22.20
2023-02-12T08:33:42.016Z,23.47
2023-02-12T08:36:11.777Z,25.23
2023-02-12T08:38:42.122Z,24.83
2023-02-12T08:41:11.329Z,21.70
2023-02-12T08:43:40.119Z,21.97
2023-02-12T08:46:09.798Z,24.47
2023-02-12T08:48:38.740Z,24.13
2023-02-12T08:51:09.676Z,24.17
2023-02-12T08:53:38.640Z,25.30
2023-02-12T08:56:08.867Z,24.37
2023-02-12T08:58:38.430Z,23.90
2023-02-12T09:01:10.250Z,24.43
2023-02-12T09:03:38.340Z,22.60
2023-02-12T09:06:07.584Z,22.70
2023-02-12T09:08:35.949Z,23.73
2023-02-12T09:11:08.877Z,23.33
2023-02-12T09:13:36.982Z,23.43
2023-02-12T09:16:06.163Z,21.90
2023-02-12T09:18:34.414Z,22.37
2023-02-12T09:21:03.577Z,21.90
2023-02-12T09:23:31.724Z,23.67
2023-02-12T09:26:00.080Z,22.17
2023-02-12T09:28:29.119Z,22.70
2023-02-12T09:30:56.924Z,21.70
2023-02-12T09:33:25.340Z,21.67
2023-02-12T09:35:57.112Z,20.43
2023-02-12T09:38:24.989Z,21.30
2023-02-12T09:41:07.351Z,21.33
2023-02-12T09:43:41.359Z,18.53
2023-02-12T09:46:20.029Z,18.77
2023-02-12T09:49:01.402Z,14.60
2023-02-12T09:51:31.072Z,12.70
2023-02-12T09:54:04.682Z,16.87
2023-02-12T09:56:32.660Z,14.00
2023-02-12T09:59:06.188Z,11.70
2023-02-12T10:01:34.739Z,9.33
2023-02-12T10:04:03.061Z,7.67
2023-02-12T10:06:34.205Z,6.57
2023-02-12T10:09:21.608Z,4.30
2023-02-12T10:11:56.501Z,3.63
2023-02-12T10:14:50.374Z,3.00
2023-02-12T10:17:28.834Z,3.73
2023-02-12T10:20:27.989Z,4.63
2023-02-12T10:23:06.379Z,3.00
2023-02-12T10:25:42.418Z,3.57
2023-02-12T10:28:13.732Z,4.17
2023-02-12T10:30:49.523Z,4.20
2023-02-12T10:33:24.535Z,4.63
2023-02-12T10:35:57.910Z,4.10
2023-02-12T10:38:31.292Z,4.90
2023-02-12T10:41:01.874Z,5.10
2023-02-12T10:43:30.270Z,4.73
2023-02-12T10:45:59.311Z,5.83
2023-02-12T10:48:33.631Z,5.13
2023-02-12T10:51:14.028Z,5.17
2023-02-12T10:53:43.700Z,4.80
2023-02-12T10:56:19.057Z,4.90
2023-02-12T10:58:56.939Z,4.70
2023-02-12T11:01:28.601Z,5.03
2023-02-12T11:03:59.668Z,4.43
2023-02-12T11:06:29.701Z,5.00
2023-02-12T11:09:00.593Z,4.30
2023-02-12T11:11:31.483Z,4.10
2023-02-12T11:14:04.053Z,5.77
2023-02-12T11:16:35.951Z,6.00
2023-02-12T11:19:06.731Z,4.27
2023-02-12T11:21:36.916Z,5.60
2023-02-12T11:24:31.189Z,6.03
2023-02-12T11:27:14.076Z,4.83
2023-02-12T11:29:42.564Z,4.80
2023-02-12T11:32:19.507Z,5.87
2023-02-12T11:35:06.350Z,5.60
2023-02-12T11:37:36.842Z,5.30
2023-02-12T11:40:05.442Z,4.77
2023-02-12T11:42:39.189Z,5.57
2023-02-12T11:45:07.585Z,5.00
2023-02-12T11:47:37.125Z,5.20
2023-02-12T11:50:32.245Z,4.30
2023-02-12T11:53:04.412Z,3.70
2023-02-12T11:55:35.445Z,3.57
2023-02-12T11:58:06.339Z,4.47
2023-02-12T12:00:39.039Z,3.63
2023-02-12T12:03:16.565Z,4.17
2023-02-12T12:05:49.572Z,4.20
2023-02-12T12:08:25.233Z,3.80
2023-02-12T12:10:57.756Z,4.70
2023-02-12T12:13:31.445Z,4.10
2023-02-12T12:16:25.570Z,4.10
2023-02-12T12:19:16.802Z,3.37
2023-02-12T12:22:15.101Z,3.40
2023-02-12T12:24:50.774Z,4.57
2023-02-12T12:27:47.942Z,3.33
2023-02-12T12:30:23.315Z,3.77
2023-02-12T12:32:54.488Z,3.80
2023-02-12T12:35:40.386Z,2.80
2023-02-12T12:38:20.049Z,3.40
2023-02-12T12:41:03.040Z,3.00
2023-02-12T12:43:44.420Z,3.23
2023-02-12T12:46:27.910Z,3.10
2023-02-12T12:49:10.023Z,2.93
2023-02-12T12:51:55.710Z,2.43
2023-02-12T12:54:46.652Z,2.40
2023-02-12T12:57:21.100Z,2.47
2023-02-12T13:00:09.331Z,3.07
2023-02-12T13:03:19.403Z,3.10
2023-02-12T13:06:19.440Z,2.63
2023-02-12T13:09:12.659Z,3.00
2023-02-12T13:11:50.560Z,2.80
2023-02-12T13:14:30.174Z,6.00
2023-02-12T13:17:08.242Z,2.80
2023-02-12T13:19:47.984Z,5.27
2023-02-12T13:22:26.414Z,3.83
2023-02-12T13:25:02.391Z,3.37
2023-02-12T13:27:35.950Z,3.17
2023-02-12T13:30:16.920Z,3.00
2023-02-12T13:32:48.263Z,2.57
2023-02-12T13:35:20.032Z,3.23
2023-02-12T13:37:52.084Z,3.00
2023-02-12T13:40:24.586Z,2.20
2023-02-12T13:42:56.796Z,2.80
2023-02-12T13:45:42.215Z,2.80
2023-02-12T13:48:37.620Z,3.10
2023-02-12T13:51:11.511Z,2.60
2023-02-12T13:53:51.058Z,2.50
2023-02-12T13:56:32.811Z,2.23
2023-02-12T13:59:01.169Z,2.53
2023-02-12T14:01:46.885Z,2.33
2023-02-12T14:04:22.974Z,1.87
2023-02-12T14:06:56.990Z,2.30
2023-02-12T14:09:32.273Z,2.40
2023-02-12T14:12:03.268Z,3.03
2023-02-12T14:14:35.428Z,2.50
2023-02-12T14:17:36.648Z,2.10
2023-02-12T14:20:09.869Z,2.77
2023-02-12T14:23:20.863Z,2.70
2023-02-12T14:25:59.002Z,2.10
2023-02-12T14:28:35.351Z,2.53
2023-02-12T14:31:35.930Z,2.20
2023-02-12T14:34:49.974Z,2.20
2023-02-12T14:37:39.042Z,2.40
2023-02-12T14:40:31.664Z,2.97
2023-02-12T14:42:59.987Z,2.00
2023-02-12T14:45:32.096Z,2.57
2023-02-12T14:48:00.826Z,2.03
2023-02-12T14:50:40.241Z,2.53
2023-02-12T14:53:22.994Z,2.00
2023-02-12T14:55:51.996Z,2.53
2023-02-12T14:58:21.820Z,2.17
2023-02-12T15:00:55.910Z,2.70
2023-02-12T15:03:28.350Z,2.80
2023-02-12T15:06:04.040Z,2.53
2023-02-12T15:08:43.603Z,2.60
2023-02-12T15:11:21.337Z,2.50
2023-02-12T15:13:55.813Z,2.23
2023-02-12T15:16:32.650Z,2.40
2023-02-12T15:19:06.519Z,2.43
2023-02-12T15:21:34.792Z,2.53
2023-02-12T15:24:06.490Z,2.47
2023-02-12T15:26:37.588Z,2.57
2023-02-12T15:29:06.264Z,2.47
2023-02-12T15:31:36.854Z,2.70
2023-02-12T15:34:05.951Z,2.40
2023-02-12T15:36:35.522Z,3.27
2023-02-12T15:39:05.881Z,3.07
2023-02-12T15:41:39.836Z,2.83
2023-02-12T15:44:21.937Z,3.90
2023-02-12T15:47:03.132Z,2.60
2023-02-12T15:49:35.430Z,3.23
2023-02-12T15:52:07.486Z,3.27
2023-02-12T15:54:36.665Z,3.07
2023-02-12T15:57:11.732Z,2.43
2023-02-12T15:59:39.865Z,3.63
2023-02-12T16:02:21.467Z,3.27
2023-02-12T16:04:49.808Z,3.10
2023-02-12T16:07:20.649Z,3.20
2023-02-12T16:09:51.526Z,3.23
2023-02-12T16:12:23.489Z,3.80
2023-02-12T16:14:53.379Z,3.50
2023-02-12T16:17:28.294Z,3.30
2023-02-12T16:19:59.155Z,4.07
2023-02-12T16:22:31.772Z,4.40
2023-02-12T16:25:02.028Z,3.53
2023-02-12T16:27:32.470Z,3.70
2023-02-12T16:30:03.512Z,4.30
2023-02-12T16:32:36.334Z,4.33
2023-02-12T16:35:24.505Z,4.50
2023-02-12T16:37:56.313Z,5.37
2023-02-12T16:40:37.262Z,5.10
2023-02-12T16:43:36.002Z,6.20
2023-02-12T16:46:06.423Z,6.10
2023-02-12T16:48:42.000Z,4.87
2023-02-12T16:51:23.040Z,4.60
2023-02-12T16:53:53.827Z,3.97
2023-02-12T16:56:24.362Z,4.77
2023-02-12T16:58:55.572Z,4.90
2023-02-12T17:01:26.631Z,4.50
2023-02-12T17:03:57.685Z,4.50
2023-02-12T17:06:27.635Z,4.40
2023-02-12T17:08:55.750Z,4.40
2023-02-12T17:11:25.653Z,4.13
2023-02-12T17:13:55.124Z,4.70
2023-02-12T17:16:32.312Z,4.57
2023-02-12T17:19:02.934Z,4.30
2023-02-12T17:21:37.831Z,4.43
2023-02-12T17:24:06.471Z,4.03
2023-02-12T17:26:34.265Z,4.03
2023-02-12T17:29:05.641Z,4.87
2023-02-12T17:31:34.236Z,4.30
2023-02-12T17:34:03.289Z,4.40
2023-02-12T17:36:31.972Z,5.37
2023-02-12T17:39:00.404Z,5.17
2023-02-12T17:41:28.281Z,4.67
2023-02-12T17:43:56.078Z,4.97
2023-02-12T17:46:25.832Z,5.93
2023-02-12T17:48:54.299Z,5.40
2023-02-12T17:51:23.748Z,5.57
2023-02-12T17:53:51.594Z,6.33
2023-02-12T17:56:21.803Z,6.27
2023-02-12T17:58:50.457Z,5.97
2023-02-12T18:01:20.860Z,5.93
2023-02-12T18:03:51.461Z,6.67
2023-02-12T18:06:25.383Z,5.83
2023-02-12T18:08:53.368Z,5.57
2023-02-12T18:11:21.260Z,6.73
2023-02-12T18:13:52.276Z,5.50
2023-02-12T18:16:20.624Z,6.20
2023-02-12T18:18:48.822Z,5.77
2023-02-12T18:21:17.952Z,6.07
2023-02-12T18:23:47.704Z,5.83
2023-02-12T18:26:19.287Z,5.97
2023-02-12T18:28:47.204Z,5.27
2023-02-12T18:31:15.499Z,6.70
2023-02-12T18:33:43.630Z,7.17
2023-02-12T18:36:15.229Z,5.80
2023-02-12T18:38:44.466Z,5.83
2023-02-12T18:41:17.421Z,6.13
2023-02-12T18:43:45.797Z,5.70
2023-02-12T18:46:16.378Z,5.03
2023-02-12T18:48:44.754Z,6.20
2023-02-12T18:51:17.133Z,6.00
2023-02-12T18:53:46.339Z,5.00
2023-02-12T18:56:15.759Z,5.63
2023-02-12T18:58:43.753Z,7.03
2023-02-12T19:01:15.487Z,6.07
2023-02-12T19:03:45.248Z,5.73
2023-02-12T19:06:13.705Z,6.40
2023-02-12T19:08:41.428Z,6.00
2023-02-12T19:11:14.793Z,6.30
2023-02-12T19:13:44.509Z,7.63
2023-02-12T19:16:14.875Z,7.10
2023-02-12T19:18:42.967Z,6.93
2023-02-12T19:21:12.731Z,7.20
2023-02-12T19:23:41.146Z,6.80
2023-02-12T19:26:12.344Z,7.50
2023-02-12T19:28:40.381Z,6.80
2023-02-12T19:31:15.470Z,9.17
2023-02-12T19:33:44.852Z,9.20
2023-02-12T19:36:15.744Z,7.33
2023-02-12T19:38:44.182Z,7.47
2023-02-12T19:41:13.444Z,6.83
2023-02-12T19:43:41.500Z,7.40
2023-02-12T19:46:12.562Z,6.90
2023-02-12T19:48:41.920Z,6.93
2023-02-12T19:51:14.457Z,6.10
2023-02-12T19:53:42.945Z,8.27
2023-02-12T19:56:10.813Z,11.77
2023-02-12T19:58:39.726Z,11.60
2023-02-12T20:01:14.542Z,11.93
2023-02-12T20:03:42.950Z,14.60
2023-02-12T20:06:14.238Z,14.07
2023-02-12T20:08:45.640Z,13.10
2023-02-12T20:11:15.714Z,13.37
2023-02-12T20:13:43.900Z,12.00
2023-02-12T20:16:18.552Z,12.87
2023-02-12T20:18:48.467Z,12.30
2023-02-12T20:21:18.675Z,13.00
2023-02-12T20:23:46.352Z,11.43
2023-02-12T20:26:15.874Z,11.23
2023-02-12T20:28:44.624Z,11.67
2023-02-12T20:31:16.883Z,10.67
2023-02-12T20:33:45.461Z,13.37
2023-02-12T20:36:14.237Z,12.17
2023-02-12T20:38:45.071Z,9.93
2023-02-12T20:41:14.149Z,12.80
2023-02-12T20:43:41.868Z,12.10
2023-02-12T20:46:15.121Z,12.93
2023-02-12T20:48:45.039Z,11.20
2023-02-12T20:51:14.964Z,12.23
2023-02-12T20:53:44.032Z,11.50
2023-02-12T20:56:15.112Z,11.30
2023-02-12T20:58:44.894Z,13.73
2023-02-12T21:01:15.624Z,15.47
2023-02-12T21:03:45.486Z,13.20
2023-02-12T21:06:13.265Z,11.73
2023-02-12T21:08:42.606Z,12.67
2023-02-12T21:11:14.715Z,14.90
2023-02-12T21:13:53.715Z,14.20
2023-02-12T21:16:28.967Z,12.23
2023-02-12T21:18:58.832Z,11.50
2023-02-12T21:21:28.810Z,11.03
2023-02-12T21:23:59.626Z,12.40
2023-02-12T21:26:28.947Z,14.70
2023-02-12T21:28:59.648Z,13.97
2023-02-12T21:31:29.858Z,13.43
2023-02-12T21:34:02.051Z,13.37
2023-02-12T21:36:32.260Z,11.20
2023-02-12T21:39:00.858Z,11.13
2023-02-12T21:41:30.803Z,11.60
2023-02-12T21:44:00.797Z,9.70
2023-02-12T21:46:29.574Z,9.00
2023-02-12T21:48:59.978Z,9.00
2023-02-12T21:51:29.954Z,9.50
2023-02-12T21:54:00.840Z,11.23
2023-02-12T21:56:30.039Z,8.77
2023-02-12T21:58:59.677Z,9.83
2023-02-12T22:01:29.920Z,11.17
2023-02-12T22:04:01.399Z,8.97
2023-02-12T22:06:29.870Z,9.33
2023-02-12T22:09:06.329Z,10.87
2023-02-12T22:11:34.406Z,9.63
2023-02-12T22:14:02.125Z,9.33
2023-02-12T22:16:30.820Z,9.43
2023-02-12T22:19:02.302Z,10.07
2023-02-12T22:21:32.564Z,9.70
2023-02-12T22:24:02.593Z,11.67
2023-02-12T22:26:31.680Z,10.40
2023-02-12T22:29:01.545Z,9.60
2023-02-12T22:31:31.135Z,9.10
2023-02-12T22:34:03.106Z,9.07
2023-02-12T22:36:31.863Z,9.83
2023-02-12T22:39:01.804Z,9.13
2023-02-12T22:41:29.799Z,10.33
2023-02-12T22:43:59.749Z,10.80
2023-02-12T22:46:28.193Z,10.53
2023-02-12T22:48:55.900Z,10.50
2023-02-12T22:51:26.582Z,10.30
2023-02-12T22:53:55.356Z,9.77
2023-02-12T22:56:23.883Z,10.13
2023-02-12T22:58:56.085Z,10.20
2023-02-12T23:01:24.264Z,10.20
2023-02-12T23:03:52.391Z,11.00
2023-02-12T23:06:22.760Z,10.07
2023-02-12T23:08:53.537Z,10.43
2023-02-12T23:11:23.032Z,10.10
2023-02-12T23:13:51.042Z,11.77
2023-02-12T23:16:18.938Z,10.40
2023-02-12T23:18:46.658Z,10.53
2023-02-12T23:21:15.956Z,10.77
2023-02-12T23:23:43.621Z,11.30
2023-02-12T23:26:13.499Z,10.30
2023-02-12T23:28:41.398Z,10.20
2023-02-12T23:31:09.184Z,10.23
2023-02-12T23:33:37.568Z,10.93
2023-02-12T23:36:05.918Z,11.97
2023-02-12T23:38:34.135Z,12.50
2023-02-12T23:41:02.103Z,11.87
2023-02-12T23:43:32.822Z,10.93
2023-02-12T23:46:00.586Z,10.93
2023-02-12T23:48:29.130Z,10.97
2023-02-12T23:50:57.952Z,10.97
2023-02-12T23:53:25.837Z,10.70
2023-02-12T23:55:53.794Z,9.23
2023-02-12T23:58:21.672Z,10.37
